Huvudsida
METAR-TAF:

METAR-TAF

Flygplatser :

Bornholms flygplats

Rønne, Danmark

latitud: 55-04N, longitud: 014-45E, höjd: 16 m

Aktuellt väderrapport

Denna rapport gjordes för 34 minuter sedan, klockan 19:20 UTC
Vind 4 kt från sydost
Temperatur 17°C
Fuktighet 88%
Tryck 1013 hPa
Sikt 10 km eller mer

METAR: EKRN 141920Z AUTO 13004KT 9999 NCD 17/15 Q1013

Tid: 21:54 (19:54 UTC)

Väderprognos

Denna rapport gjordes för 2 timmar och 53 minuter sedan, klockan 17:01 UTC
Prognos gäller från 14 kl. 18 UTC till 15 kl. 03 UTC
Vind 8 kt från syd
Sikt 10 km eller mer
Få moln på en höjd av 8000 ft

TAF: EKRN 141701Z 1418/1503 18008KT 9999 FEW080

Aktuella väderrapporter och prognoser från 4000 flygplatser (METAR- och TAF-rapporter).

De tillgängliga stationerna syns som gula och röda prickar på kartan.

För musen över prickarna för att se namnen på stationerna.

Klicka sedan för att få väderrapporter och prognoser.

För att ändra kartan: Klicka på de gröna knapparna med ett svart kors på för att zooma in; den gröna knappen med ett streck på för att zooma ut; eller på de gröna pilarna för angränsande kartor.


METAR-TAF: